Teaneck, NJ (07666)

1:28 AM EST on January 31, 2015 (GMT -0500)
New Bridge | Change Station
CLOSE
Current Station
Personal Weather Station
Location: New Milford, NJ
Elevation: 46 ft
Nearby Weather Stations

Elev 46 ft 40.92 °N, 74.02 °W | Updated 47 seconds ago

Clear
Clear
15.9 °F
Feels Like 16 °F
N
3.0
Wind Variable Wind from NE
Gusts 8.0 mph

Today
High -- | Low -- °F
--% Chance of Precip.
Yesterday
High -- | Low -- °F
Precip. -- in
7:07 AM 5:11 PM
Waxing Gibbous, 87% visible
Pressure 30.04 in
Visibility 10.0 miles
Clouds Clear
Windchill 16 °F
Dew Point 5 °F
Humidity 61%
Rainfall 0.00 in
Snow Depth Not available.
UV 0 out of 12
Pollen .10 out of 12
Air Quality Not available.
Flu Activity Not available.
METAR KTEB 310551Z 33015G29KT 10SM CLR M08/M17 A3004 RMK AO2 PK WND 31031/0515 SLP172 T10831172 11033 21083 53004

More Conditions Fewer Conditions

Pressure 30.04 in
Visibility 10.0 miles
Clouds Clear
Windchill 16 °F
Dew Point 5 °F
Humidity 61%
Rainfall 0.00 in
Snow Depth Not available.
UV 0 out of 12
Pollen .10 out of 12
Air Quality Not available.
Flu Activity Not available.
METAR KTEB 310551Z 33015G29KT 10SM CLR M08/M17 A3004 RMK AO2 PK WND 31031/0515 SLP172 T10831172 11033 21083 53004

More Conditions Fewer Conditions

10-Day Weather Forecast

Almanac

Astronomy

Jan. 31, 2015 Rise Set
Actual Time
Civil Twilight
Nautical Twilight
Astronomical Twilight
Moon
Length of Visible Light
Length of Day
Tomorrow will be .
, % of the Moon is Illuminated

Today's Extremes

State Highs State Lows

Community

WunderPhotos

Upload Photos

1,792,013 photos uploaded!

WunderBlogs® & News

Nearby

Air Quality

  Air Quality AQ Index Pollutant
Not available.

Snow Depth

Station Depth Elevation

Earthquake Activity

City Distance Mag. Time & Date
Minimum magnitude displayed is 2.5.

Coastal Water Temperatures

Place Temperature

Nearby Weather Stations